createdAt,value
2022-11-21T00:01:20.586Z,51.65
2022-11-21T00:03:49.574Z,55.33
2022-11-21T00:06:18.604Z,54.88
2022-11-21T00:08:48.964Z,62.00
2022-11-21T00:11:18.081Z,56.65
2022-11-21T00:13:46.357Z,57.10
2022-11-21T00:16:16.727Z,54.33
2022-11-21T00:18:45.465Z,49.72
2022-11-21T00:21:16.367Z,57.30
2022-11-21T00:23:45.044Z,50.85
2022-11-21T00:26:16.901Z,58.17
2022-11-21T00:28:46.192Z,49.60
2022-11-21T00:31:20.753Z,54.60
2022-11-21T00:33:51.163Z,53.92
2022-11-21T00:36:19.757Z,54.00
2022-11-21T00:38:48.363Z,52.92
2022-11-21T00:41:18.001Z,52.08
2022-11-21T00:43:46.763Z,59.95
2022-11-21T00:46:15.285Z,53.17
2022-11-21T00:48:44.601Z,52.13
2022-11-21T00:51:13.047Z,51.58
2022-11-21T00:53:42.615Z,55.53
2022-11-21T00:56:11.181Z,47.08
2022-11-21T00:58:41.992Z,55.20
2022-11-21T01:01:11.974Z,55.15
2022-11-21T01:03:40.530Z,57.70
2022-11-21T01:06:11.154Z,49.40
2022-11-21T01:08:41.467Z,57.55
2022-11-21T01:11:11.520Z,51.78
2022-11-21T01:13:42.539Z,54.97
2022-11-21T01:16:14.186Z,52.38
2022-11-21T01:18:42.762Z,58.92
2022-11-21T01:21:15.721Z,51.67
2022-11-21T01:23:44.628Z,56.00
2022-11-21T01:26:15.276Z,51.38
2022-11-21T01:28:46.156Z,54.50
2022-11-21T01:31:17.026Z,48.20
2022-11-21T01:33:46.231Z,52.37
2022-11-21T01:36:16.588Z,52.22
2022-11-21T01:38:46.803Z,53.38
2022-11-21T01:41:18.124Z,54.13
2022-11-21T01:43:48.911Z,48.95
2022-11-21T01:46:19.358Z,48.10
2022-11-21T01:48:54.058Z,48.00
2022-11-21T01:51:27.479Z,50.20
2022-11-21T01:53:59.963Z,52.65
2022-11-21T01:56:30.547Z,53.80
2022-11-21T01:59:04.958Z,51.42
2022-11-21T02:01:36.326Z,48.08
2022-11-21T02:04:07.909Z,47.28
2022-11-21T02:06:37.995Z,47.60
2022-11-21T02:09:07.252Z,54.55
2022-11-21T02:12:33.627Z,53.55
2022-11-21T02:15:03.492Z,47.05
2022-11-21T02:17:33.916Z,49.67
2022-11-21T02:20:04.706Z,52.95
2022-11-21T02:22:41.629Z,51.35
2022-11-21T02:25:14.449Z,47.35
2022-11-21T02:27:43.171Z,49.45
2022-11-21T02:30:13.476Z,44.50
2022-11-21T02:32:46.898Z,51.72
2022-11-21T02:35:16.539Z,51.90
2022-11-21T02:37:48.308Z,51.83
2022-11-21T02:40:22.359Z,45.22
2022-11-21T02:43:00.674Z,53.38
2022-11-21T02:45:33.645Z,45.83
2022-11-21T02:48:04.305Z,49.60
2022-11-21T02:50:35.297Z,54.13
2022-11-21T02:53:04.546Z,47.80
2022-11-21T02:55:35.169Z,57.85
2022-11-21T02:58:05.506Z,51.22
2022-11-21T03:00:36.907Z,49.78
2022-11-21T03:03:05.506Z,52.67
2022-11-21T03:05:34.475Z,48.08
2022-11-21T03:08:02.921Z,52.90
2022-11-21T03:10:31.514Z,56.60
2022-11-21T03:13:04.727Z,57.35
2022-11-21T03:15:35.711Z,53.95
2022-11-21T03:18:05.046Z,46.40
2022-11-21T03:20:35.655Z,53.53
2022-11-21T03:23:04.422Z,60.00
2022-11-21T03:25:32.801Z,52.72
2022-11-21T03:28:02.585Z,51.15
2022-11-21T03:30:31.039Z,50.90
2022-11-21T03:33:00.508Z,51.00
2022-11-21T03:35:28.850Z,55.75
2022-11-21T03:37:57.150Z,43.83
2022-11-21T03:40:25.929Z,50.90
2022-11-21T03:42:54.400Z,51.30
2022-11-21T03:45:24.250Z,47.70
2022-11-21T03:47:53.134Z,46.88
2022-11-21T03:50:21.851Z,43.67
2022-11-21T03:52:50.256Z,48.10
2022-11-21T03:55:19.726Z,44.22
2022-11-21T03:57:48.113Z,41.70
2022-11-21T04:00:17.731Z,41.13
2022-11-21T04:02:47.493Z,44.83
2022-11-21T04:05:16.899Z,43.40
2022-11-21T04:07:47.743Z,46.72
2022-11-21T04:10:16.830Z,43.60
2022-11-21T04:12:46.824Z,40.85
2022-11-21T04:15:15.251Z,46.60
2022-11-21T04:17:43.835Z,43.00
2022-11-21T04:20:13.818Z,43.60
2022-11-21T04:22:42.337Z,44.95
2022-11-21T04:25:11.271Z,41.08
2022-11-21T04:27:39.667Z,38.15
2022-11-21T04:30:09.050Z,58.28
2022-11-21T04:32:37.517Z,53.50
2022-11-21T04:35:06.760Z,56.70
2022-11-21T04:37:36.596Z,43.35
2022-11-21T04:40:06.079Z,49.63
2022-11-21T04:42:34.396Z,48.40
2022-11-21T04:45:03.272Z,52.25
2022-11-21T04:47:31.754Z,43.70
2022-11-21T04:50:00.246Z,45.20
2022-11-21T04:52:28.779Z,52.55
2022-11-21T04:54:58.522Z,45.53
2022-11-21T04:57:29.431Z,45.40
2022-11-21T04:59:58.135Z,43.95
2022-11-21T05:02:26.408Z,48.00
2022-11-21T05:04:55.938Z,47.70
2022-11-21T05:07:24.393Z,44.58
2022-11-21T05:09:52.928Z,39.13
2022-11-21T05:12:40.415Z,37.40
2022-11-21T05:15:09.272Z,44.05
2022-11-21T05:17:37.878Z,42.60
2022-11-21T05:20:07.425Z,42.83
2022-11-21T05:22:36.291Z,42.40
2022-11-21T05:25:05.616Z,44.60
2022-11-21T05:27:35.429Z,35.42
2022-11-21T05:30:03.862Z,38.25
2022-11-21T05:32:32.416Z,38.13
2022-11-21T05:35:00.887Z,45.00
2022-11-21T05:37:29.243Z,40.65
2022-11-21T05:39:57.863Z,40.03
2022-11-21T05:42:40.133Z,43.80
2022-11-21T05:45:11.157Z,40.10
2022-11-21T05:47:39.867Z,39.85
2022-11-21T05:50:09.728Z,41.83
2022-11-21T05:52:48.459Z,43.55
2022-11-21T05:55:17.177Z,52.00
2022-11-21T05:57:45.685Z,42.28
2022-11-21T06:00:16.978Z,45.08
2022-11-21T06:05:31.736Z,34.25
2022-11-21T06:08:00.109Z,39.80
2022-11-21T06:10:28.936Z,37.70
2022-11-21T06:13:01.046Z,33.42
2022-11-21T06:15:31.182Z,38.05
2022-11-21T06:18:01.938Z,40.17
2022-11-21T06:20:30.619Z,40.25
2022-11-21T06:22:59.181Z,43.10
2022-11-21T06:25:27.763Z,45.33
2022-11-21T06:27:56.632Z,45.60
2022-11-21T06:30:26.131Z,44.50
2022-11-21T06:32:56.218Z,50.33
2022-11-21T06:35:24.902Z,38.40
2022-11-21T06:37:53.960Z,45.70
2022-11-21T06:40:22.398Z,42.90
2022-11-21T06:42:50.956Z,38.08
2022-11-21T06:45:19.691Z,42.60
2022-11-21T06:47:48.663Z,40.50
2022-11-21T06:50:18.971Z,44.53
2022-11-21T06:52:47.345Z,38.30
2022-11-21T06:55:16.088Z,47.35
2022-11-21T06:57:45.043Z,47.88
2022-11-21T07:00:14.997Z,47.40
2022-11-21T07:02:43.394Z,48.22
2022-11-21T07:05:11.901Z,38.40
2022-11-21T07:07:41.756Z,43.60
2022-11-21T07:10:11.350Z,46.40
2022-11-21T07:12:57.085Z,50.17
2022-11-21T07:15:25.972Z,41.67
2022-11-21T07:17:54.577Z,40.53
2022-11-21T07:20:24.166Z,43.90
2022-11-21T07:22:56.824Z,46.33
2022-11-21T07:25:25.634Z,57.33
2022-11-21T07:27:53.996Z,59.55
2022-11-21T07:30:23.517Z,68.85
2022-11-21T07:32:56.661Z,60.55
2022-11-21T07:35:25.329Z,60.88
2022-11-21T07:37:54.201Z,51.92
2022-11-21T07:40:24.415Z,50.78
2022-11-21T07:42:53.713Z,56.90
2022-11-21T07:45:24.629Z,69.68
2022-11-21T07:47:59.093Z,66.18
2022-11-21T07:50:27.942Z,51.42
2022-11-21T07:52:59.411Z,46.25
2022-11-21T07:55:30.415Z,49.58
2022-11-21T07:58:00.757Z,50.80
2022-11-21T08:00:31.264Z,45.28
2022-11-21T08:03:00.570Z,48.63
2022-11-21T08:05:29.087Z,45.47
2022-11-21T08:07:57.563Z,49.05
2022-11-21T08:10:25.963Z,47.20
2022-11-21T08:12:56.029Z,42.90
2022-11-21T08:15:25.462Z,57.73
2022-11-21T08:17:54.190Z,45.35
2022-11-21T08:20:22.494Z,46.35
2022-11-21T08:22:51.016Z,45.45
2022-11-21T08:25:19.529Z,44.30
2022-11-21T08:27:48.260Z,44.08
2022-11-21T08:30:18.403Z,50.15
2022-11-21T08:32:47.000Z,51.80
2022-11-21T08:35:15.936Z,55.38
2022-11-21T08:37:44.632Z,53.55
2022-11-21T08:40:13.540Z,54.20
2022-11-21T08:42:42.202Z,51.28
2022-11-21T08:45:11.754Z,46.95
2022-11-21T08:47:44.148Z,54.05
2022-11-21T08:50:13.234Z,52.72
2022-11-21T08:52:41.737Z,57.35
2022-11-21T08:55:11.146Z,59.95
2022-11-21T08:57:42.039Z,59.15
2022-11-21T09:00:13.670Z,57.75
2022-11-21T09:02:43.940Z,54.42
2022-11-21T09:05:13.857Z,53.83
2022-11-21T09:07:42.676Z,55.83
2022-11-21T09:10:11.920Z,61.00
2022-11-21T09:12:40.666Z,57.55
2022-11-21T09:15:29.459Z,61.00
2022-11-21T09:18:07.799Z,53.05
2022-11-21T09:20:40.944Z,54.30
2022-11-21T09:23:11.502Z,48.83
2022-11-21T09:25:42.517Z,51.78
2022-11-21T09:28:14.122Z,56.83
2022-11-21T09:30:43.855Z,62.20
2022-11-21T09:33:15.010Z,58.03
2022-11-21T09:35:44.759Z,54.05
2022-11-21T09:38:13.816Z,52.25
2022-11-21T09:40:46.519Z,54.70
2022-11-21T09:43:45.241Z,52.97
2022-11-21T09:46:16.897Z,55.35
2022-11-21T09:48:58.763Z,58.63
2022-11-21T09:54:04.077Z,56.03
2022-11-21T09:56:38.442Z,48.63
2022-11-21T09:59:21.375Z,53.83
2022-11-21T10:01:50.246Z,51.70
2022-11-21T10:04:20.722Z,51.85
2022-11-21T10:06:59.127Z,48.10
2022-11-21T10:09:42.769Z,47.67
2022-11-21T10:12:38.556Z,53.97
2022-11-21T10:15:24.988Z,44.03
2022-11-21T10:18:21.657Z,43.65
2022-11-21T10:21:01.549Z,47.72
2022-11-21T10:24:05.401Z,44.30
2022-11-21T10:26:43.450Z,41.50
2022-11-21T10:29:24.035Z,46.55
2022-11-21T10:31:57.701Z,45.00
2022-11-21T10:34:31.891Z,42.17
2022-11-21T10:37:12.413Z,42.97
2022-11-21T10:39:45.373Z,44.60
2022-11-21T10:42:28.937Z,41.22
2022-11-21T10:45:20.564Z,42.13
2022-11-21T10:47:50.758Z,42.83
2022-11-21T10:50:36.982Z,41.33
2022-11-21T10:53:38.519Z,46.92
2022-11-21T10:56:10.712Z,44.97
2022-11-21T10:58:45.902Z,42.72
2022-11-21T11:01:26.671Z,41.55
2022-11-21T11:04:43.737Z,46.28
2022-11-21T11:07:24.899Z,50.63
2022-11-21T11:10:15.251Z,56.85
2022-11-21T11:13:05.127Z,45.30
2022-11-21T11:16:04.951Z,47.22
2022-11-21T11:18:36.439Z,44.35
2022-11-21T11:21:16.002Z,45.13
2022-11-21T11:23:46.885Z,39.75
2022-11-21T11:26:26.540Z,37.33
2022-11-21T11:29:09.858Z,37.80
2022-11-21T11:31:43.302Z,42.90
2022-11-21T11:34:17.144Z,34.22
2022-11-21T11:36:56.314Z,40.72
2022-11-21T11:39:39.806Z,37.05
2022-11-21T11:42:51.517Z,32.80
2022-11-21T11:45:53.996Z,36.38
2022-11-21T11:48:23.579Z,38.85
2022-11-21T11:50:56.562Z,39.70
2022-11-21T11:53:31.149Z,37.00
2022-11-21T11:56:06.639Z,32.92
2022-11-21T11:58:43.555Z,31.05
2022-11-21T12:01:16.177Z,33.08
2022-11-21T12:03:54.957Z,35.65
2022-11-21T12:07:04.120Z,32.73
2022-11-21T12:12:08.747Z,35.83
2022-11-21T12:15:15.633Z,39.47
2022-11-21T12:17:54.277Z,34.67
2022-11-21T12:20:26.240Z,34.28
2022-11-21T12:22:56.699Z,31.95
2022-11-21T12:25:31.620Z,34.15
2022-11-21T12:28:01.123Z,31.83
2022-11-21T12:31:04.970Z,31.80
2022-11-21T12:33:42.558Z,37.17
2022-11-21T12:36:30.224Z,30.65
2022-11-21T12:39:45.553Z,30.15
2022-11-21T12:42:41.598Z,38.40
2022-11-21T12:45:27.592Z,38.08
2022-11-21T12:48:52.587Z,32.85
2022-11-21T12:51:58.396Z,30.50
2022-11-21T12:55:02.641Z,26.67
2022-11-21T12:58:05.021Z,31.33
2022-11-21T13:00:44.648Z,28.13
2022-11-21T13:03:35.185Z,31.30
2022-11-21T13:06:07.044Z,33.92
2022-11-21T13:08:39.097Z,31.42
2022-11-21T13:14:06.407Z,32.03
2022-11-21T13:16:39.815Z,29.25
2022-11-21T13:19:22.043Z,33.53
2022-11-21T13:21:55.237Z,33.63
2022-11-21T13:25:00.613Z,46.90
2022-11-21T13:27:39.119Z,42.10
2022-11-21T13:30:37.827Z,29.83
2022-11-21T13:33:14.244Z,33.97
2022-11-21T13:36:09.415Z,32.67
2022-11-21T13:42:18.633Z,34.33
2022-11-21T13:44:49.401Z,33.85
2022-11-21T13:47:57.101Z,31.67
2022-11-21T13:51:19.515Z,29.88
2022-11-21T13:54:11.583Z,25.73
2022-11-21T13:56:54.601Z,29.48
2022-11-21T13:59:51.772Z,29.42
2022-11-21T14:02:48.177Z,35.47
2022-11-21T14:05:33.906Z,33.92
2022-11-21T14:08:22.865Z,35.10
2022-11-21T14:10:58.372Z,30.15
2022-11-21T14:13:35.583Z,33.85
2022-11-21T14:16:20.050Z,27.58
2022-11-21T14:18:53.065Z,29.85
2022-11-21T14:21:27.541Z,29.50
2022-11-21T14:24:06.030Z,30.25
2022-11-21T14:26:42.484Z,27.52
2022-11-21T14:29:23.340Z,28.63
2022-11-21T14:31:56.096Z,31.05
2022-11-21T14:34:36.204Z,26.27
2022-11-21T14:37:07.444Z,24.98
2022-11-21T14:39:44.803Z,29.48
2022-11-21T14:42:21.290Z,27.60
2022-11-21T14:45:10.545Z,31.77
2022-11-21T14:47:48.828Z,30.92
2022-11-21T14:50:32.389Z,32.92
2022-11-21T14:53:05.573Z,49.70
2022-11-21T14:55:37.877Z,40.53
2022-11-21T14:58:10.451Z,32.92
2022-11-21T15:03:29.239Z,28.38
2022-11-21T15:06:05.888Z,30.05
2022-11-21T15:11:27.230Z,30.70
2022-11-21T15:14:17.124Z,36.17
2022-11-21T15:16:49.200Z,25.85
2022-11-21T15:19:25.034Z,27.95
2022-11-21T15:21:55.555Z,32.35
2022-11-21T15:24:40.628Z,21.48
2022-11-21T15:27:35.098Z,27.88
2022-11-21T15:30:22.551Z,33.45
2022-11-21T15:33:11.758Z,27.77
2022-11-21T15:35:51.086Z,27.67
2022-11-21T15:38:25.823Z,29.00
2022-11-21T15:41:23.681Z,30.17
2022-11-21T15:43:54.651Z,27.60
2022-11-21T15:46:25.972Z,28.27
2022-11-21T15:48:56.323Z,28.40
2022-11-21T15:51:59.546Z,29.80
2022-11-21T15:54:18.037Z,29.35
2022-11-21T15:56:47.726Z,35.15
2022-11-21T15:59:17.516Z,29.30
2022-11-21T16:01:47.433Z,34.17
2022-11-21T16:04:20.954Z,35.90
2022-11-21T16:06:52.838Z,29.27
2022-11-21T16:09:21.709Z,29.25
2022-11-21T16:11:50.405Z,30.35
2022-11-21T16:14:19.680Z,28.35
2022-11-21T16:16:50.110Z,29.13
2022-11-21T16:19:18.946Z,31.45
2022-11-21T16:21:48.449Z,27.17
2022-11-21T16:24:18.079Z,31.95
2022-11-21T16:26:47.059Z,27.85
2022-11-21T16:29:15.693Z,26.48
2022-11-21T16:31:44.422Z,31.17
2022-11-21T16:34:14.708Z,72.80
2022-11-21T16:36:43.965Z,54.70
2022-11-21T16:39:17.748Z,60.88
2022-11-21T16:41:49.275Z,50.30
2022-11-21T16:44:21.065Z,37.67
2022-11-21T16:46:51.853Z,33.70
2022-11-21T16:49:22.007Z,34.95
2022-11-21T16:51:50.905Z,30.80
2022-11-21T16:54:19.471Z,27.85
2022-11-21T16:56:48.227Z,29.80
2022-11-21T16:59:17.118Z,32.55
2022-11-21T17:01:49.280Z,43.17
2022-11-21T17:04:18.656Z,39.60
2022-11-21T17:06:49.327Z,47.97
2022-11-21T17:11:47.486Z,37.03
2022-11-21T17:14:17.315Z,39.28
2022-11-21T17:16:46.265Z,36.47
2022-11-21T17:19:16.595Z,37.67
2022-11-21T17:21:45.040Z,40.50
2022-11-21T17:24:15.771Z,39.65
2022-11-21T17:26:45.032Z,46.50
2022-11-21T17:29:13.555Z,32.80
2022-11-21T17:31:42.979Z,35.22
2022-11-21T17:34:11.860Z,31.58
2022-11-21T17:36:40.666Z,31.38
2022-11-21T17:39:09.170Z,33.40
2022-11-21T17:41:39.757Z,31.30
2022-11-21T17:44:08.714Z,26.75
2022-11-21T17:46:37.230Z,29.45
2022-11-21T17:49:06.407Z,27.30
2022-11-21T17:51:35.547Z,29.33
2022-11-21T17:54:04.940Z,39.60
2022-11-21T17:56:35.423Z,30.77
2022-11-21T17:59:07.726Z,36.78
2022-11-21T18:01:37.468Z,37.03
2022-11-21T18:04:14.713Z,28.48
2022-11-21T18:06:43.980Z,26.13
2022-11-21T18:09:13.373Z,41.25
2022-11-21T18:11:42.061Z,29.42
2022-11-21T18:14:13.818Z,30.35
2022-11-21T18:16:51.144Z,34.03
2022-11-21T18:19:22.410Z,46.28
2022-11-21T18:21:51.996Z,41.67
2022-11-21T18:24:20.858Z,41.58
2022-11-21T18:26:49.640Z,40.58
2022-11-21T18:29:35.850Z,41.67
2022-11-21T18:32:06.195Z,33.60
2022-11-21T18:34:34.618Z,48.90
2022-11-21T18:37:03.258Z,37.65
2022-11-21T18:39:32.182Z,29.35
2022-11-21T18:42:01.105Z,23.42
2022-11-21T18:44:31.864Z,23.98
2022-11-21T18:47:00.391Z,25.25
2022-11-21T18:49:29.076Z,26.58
2022-11-21T18:51:58.070Z,31.92
2022-11-21T18:54:26.844Z,33.00
2022-11-21T18:56:57.213Z,25.50
2022-11-21T18:59:26.384Z,24.38
2022-11-21T19:01:56.940Z,23.05
2022-11-21T19:04:26.018Z,26.88
2022-11-21T19:06:54.571Z,25.52
2022-11-21T19:09:28.070Z,26.55
2022-11-21T19:11:59.704Z,24.33
2022-11-21T19:14:28.508Z,25.40
2022-11-21T19:16:58.770Z,32.53
2022-11-21T19:19:34.668Z,56.42
2022-11-21T19:22:06.829Z,40.05
2022-11-21T19:24:35.551Z,51.40
2022-11-21T19:27:04.209Z,44.00
2022-11-21T19:29:33.512Z,65.75
2022-11-21T19:32:03.814Z,59.42
2022-11-21T19:34:32.571Z,38.20
2022-11-21T19:37:01.271Z,32.92
2022-11-21T19:39:31.502Z,38.90
2022-11-21T19:42:00.311Z,74.68
2022-11-21T19:44:29.050Z,49.65
2022-11-21T19:46:57.745Z,31.58
2022-11-21T19:49:28.197Z,34.40
2022-11-21T19:51:56.977Z,31.10
2022-11-21T19:54:25.689Z,27.73
2022-11-21T19:56:54.714Z,32.63
2022-11-21T19:59:23.393Z,24.40
2022-11-21T20:01:53.299Z,44.97
2022-11-21T20:04:22.038Z,53.42
2022-11-21T20:06:53.018Z,34.90
2022-11-21T20:09:23.126Z,27.25
2022-11-21T20:11:53.852Z,29.52
2022-11-21T20:14:23.162Z,28.08
2022-11-21T20:16:54.038Z,43.35
2022-11-21T20:19:25.299Z,38.28
2022-11-21T20:21:55.276Z,30.13
2022-11-21T20:24:23.861Z,28.05
2022-11-21T20:26:53.644Z,25.02
2022-11-21T20:29:22.209Z,23.02
2022-11-21T20:31:50.901Z,32.65
2022-11-21T20:34:19.557Z,39.10
2022-11-21T20:36:48.456Z,33.28
2022-11-21T20:39:20.556Z,26.70
2022-11-21T20:41:49.574Z,30.23
2022-11-21T20:47:11.163Z,29.20
2022-11-21T20:49:40.559Z,28.40
2022-11-21T20:54:59.566Z,36.38
2022-11-21T20:57:29.516Z,29.08
2022-11-21T20:59:59.121Z,31.33
2022-11-21T21:02:27.840Z,33.17
2022-11-21T21:04:56.218Z,34.20
2022-11-21T21:07:24.833Z,56.78
2022-11-21T21:09:55.978Z,57.22
2022-11-21T21:12:27.646Z,38.15
2022-11-21T21:14:56.486Z,26.90
2022-11-21T21:17:25.131Z,26.05
2022-11-21T21:19:54.106Z,27.85
2022-11-21T21:22:23.024Z,28.73
2022-11-21T21:24:52.118Z,30.52
2022-11-21T21:27:20.980Z,27.98
2022-11-21T21:29:51.233Z,30.48
2022-11-21T21:32:20.048Z,26.90
2022-11-21T21:34:48.855Z,27.48
2022-11-21T21:37:19.183Z,25.75
2022-11-21T21:39:48.122Z,30.55
2022-11-21T21:42:17.069Z,27.30
2022-11-21T21:44:46.372Z,51.42
2022-11-21T21:47:17.580Z,48.15
2022-11-21T21:49:46.487Z,35.72
2022-11-21T21:52:15.598Z,30.83
2022-11-21T21:54:45.603Z,41.47
2022-11-21T21:57:17.665Z,35.90
2022-11-21T21:59:46.587Z,28.27
2022-11-21T22:02:17.080Z,27.73
2022-11-21T22:04:50.604Z,27.70
2022-11-21T22:07:20.975Z,25.45
2022-11-21T22:09:50.612Z,24.73
2022-11-21T22:12:19.422Z,24.73
2022-11-21T22:14:48.948Z,23.45
2022-11-21T22:17:18.832Z,26.50
2022-11-21T22:19:48.993Z,25.92
2022-11-21T22:22:18.026Z,24.42
2022-11-21T22:24:46.809Z,28.33
2022-11-21T22:27:16.608Z,25.17
2022-11-21T22:29:45.711Z,23.55
2022-11-21T22:32:19.498Z,29.35
2022-11-21T22:34:50.086Z,29.45
2022-11-21T22:37:19.237Z,26.65
2022-11-21T22:39:48.241Z,26.63
2022-11-21T22:42:16.955Z,25.08
2022-11-21T22:44:46.017Z,27.77
2022-11-21T22:47:15.417Z,28.30
2022-11-21T22:49:45.129Z,28.85
2022-11-21T22:52:15.090Z,25.50
2022-11-21T22:54:43.923Z,23.88
2022-11-21T22:57:13.544Z,24.10
2022-11-21T22:59:42.650Z,25.77
2022-11-21T23:02:11.572Z,29.27
2022-11-21T23:04:40.193Z,30.55
2022-11-21T23:07:09.261Z,28.10
2022-11-21T23:09:39.797Z,25.77
2022-11-21T23:12:08.818Z,30.30
2022-11-21T23:14:38.595Z,29.42
2022-11-21T23:17:07.556Z,26.73
2022-11-21T23:19:36.594Z,27.30
2022-11-21T23:22:05.664Z,28.95
2022-11-21T23:24:35.299Z,25.63
2022-11-21T23:27:06.568Z,26.00
2022-11-21T23:29:36.137Z,24.90
2022-11-21T23:32:06.414Z,24.10
2022-11-21T23:34:35.300Z,26.60
2022-11-21T23:37:04.033Z,25.73
2022-11-21T23:39:32.911Z,30.10
2022-11-21T23:42:01.580Z,27.33
2022-11-21T23:44:32.428Z,27.05
2022-11-21T23:47:01.734Z,27.80
2022-11-21T23:49:30.888Z,27.23
2022-11-21T23:51:59.912Z,26.65
2022-11-21T23:54:29.171Z,27.30
2022-11-21T23:56:57.802Z,26.42
2022-11-21T23:59:26.944Z,24.70
